KFHU

Sierra Vista Municipal-Libby AAF Airport

Fort Huachuca Sierra Vista, Arizona, USA
TAF KFHU 251802Z 2518/2624 25006KT 9999 FEW150 QNH3008INS TEMPO 2519/2523 26012G20KT BECMG 2605/2606 VRB06KT 9999 SKC QNH3012INS BECMG 2619/2620 25012KT 9999 SKC QNH3007INS TX31/2521Z TN14/2612Z
Issued Valid From Valid To
Apr-25 @ 18:02 UTC
(11 minutes ago)
Apr-25 @ 18:00 UTC
(13 minutes ago)
Apr-27 @ 00:00 UTC
(-1 days ago)
Apr-25 @ 18:00 to Apr-26 @ 05:00
TAF KFHU 251802Z 2518/2624 25006KT 9999 FEW150 QNH3008INS
Wind Visibility Clouds Readings
250° at 6 knots Greater than 6 miles
  • Few at 15,000' AGL
Altimeter 30.09" Hg
Pressure 1019 hPa
Temporary Apr-25 @ 19:00 to Apr-25 @ 23:00
TEMPO 2519/2523 26012G20KT
Wind
260° at 12 knots
 Gusting to 20 knots
Becoming Apr-26 @ 05:00 to Apr-26 @ 19:00
BECMG 2605/2606 VRB06KT 9999 SKC QNH3012INS
Wind Visibility Clouds Readings
Variable at 6 knots Greater than 6 miles
  • Clear skies
Altimeter 30.12" Hg
Pressure 1020 hPa
Becoming Apr-26 @ 19:00 to Apr-27 @ 00:00
BECMG 2619/2620 25012KT 9999 SKC QNH3007INS TX31/2521Z TN14/2612Z
Wind Visibility Clouds Readings
250° at 12 knots Greater than 6 miles
  • Clear skies
Altimeter 30.06" Hg
Pressure 1018 hPa
TAF KFHU 251802Z 2518/2624 25006KT 9999 FEW150 QNH3008INS TEMPO 2519/2523 26012G20KT BECMG 2605/2606 VRB06KT 9999 SKC QNH3012INS BECMG 2619/2620 25012KT 9999 SKC QNH3007INS TX31/2521Z TN14/2612Z
Issued Apr-25 @ 18:02 UTC
(11 minutes ago)
Valid From Apr-25 @ 18:00 UTC
(13 minutes ago)
Valid To Apr-27 @ 00:00 UTC
(-1 days ago)
Apr-25 @ 18:00 - Apr-26 @ 05:00
Wind Visibility
250° at 6 knots Greater than 6 miles
Clouds
  • Few at 15,000' AGL
Temporary Apr-25 @ 19:00 - Apr-25 @ 23:00
Wind
260° at 12 knots
 Gusting to 20 knots
Becoming Apr-26 @ 05:00 - Apr-26 @ 19:00
Wind Visibility
Variable at 6 knots Greater than 6 miles
Clouds
  • Clear skies
Becoming Apr-26 @ 19:00 - Apr-27 @ 00:00
Wind Visibility
250° at 12 knots Greater than 6 miles
Clouds
  • Clear skies